Terminal Aerodrome Forecast
Issued by NWS

Home | Current Version | Previous Version | Text Only | Print | Product List | Glossary On
Versions: 1 2 3 4 5 6 7 8 9 10 11 12 13 14 15 16 17 18 19 20 21
975
FTUS46 KPDT 240646 AAA
TAFRDM
TAF AMD
KRDM 240646Z 2407/2506 VRB06KT 1/4SM FZFG OVC002
      TEMPO 2407/2410 2SM BR BKN002 OVC012
     FM241200 VRB06KT 5SM BR FEW010 SCT120
     FM241900 33007KT P6SM SCT025
     FM250400 VRB06KT 5SM BR SCT020 BKN050=

USA.gov is the U.S. government's official web portal to all federal, state and local government web resources and services.